sensor_id;sensor_type;location;lat;lon;timestamp;P1;durP1;ratioP1;P2;durP2;ratioP2
9722;SDS011;4900;49.306;8.500;2023-12-04T00:02:22;18.33;;;10.77;;
9722;SDS011;4900;49.306;8.500;2023-12-04T00:04:47;20.07;;;11.53;;
9722;SDS011;4900;49.306;8.500;2023-12-04T00:07:13;18.03;;;10.97;;
9722;SDS011;4900;49.306;8.500;2023-12-04T00:09:39;15.67;;;10.03;;
9722;SDS011;4900;49.306;8.500;2023-12-04T00:12:04;16.60;;;10.77;;
9722;SDS011;4900;49.306;8.500;2023-12-04T00:14:30;20.10;;;11.53;;
9722;SDS011;4900;49.306;8.500;2023-12-04T00:16:55;19.17;;;11.47;;
9722;SDS011;4900;49.306;8.500;2023-12-04T00:19:21;19.63;;;11.30;;
9722;SDS011;4900;49.306;8.500;2023-12-04T00:21:46;18.53;;;11.23;;
9722;SDS011;4900;49.306;8.500;2023-12-04T00:24:12;19.27;;;11.27;;
9722;SDS011;4900;49.306;8.500;2023-12-04T00:26:37;17.50;;;10.50;;
9722;SDS011;4900;49.306;8.500;2023-12-04T00:29:03;20.47;;;11.17;;
9722;SDS011;4900;49.306;8.500;2023-12-04T00:31:28;19.30;;;10.57;;
9722;SDS011;4900;49.306;8.500;2023-12-04T00:33:54;18.80;;;11.00;;
9722;SDS011;4900;49.306;8.500;2023-12-04T00:36:19;21.07;;;11.03;;
9722;SDS011;4900;49.306;8.500;2023-12-04T00:38:45;17.57;;;10.17;;
9722;SDS011;4900;49.306;8.500;2023-12-04T00:41:10;17.47;;;10.70;;
9722;SDS011;4900;49.306;8.500;2023-12-04T00:43:36;19.43;;;11.20;;
9722;SDS011;4900;49.306;8.500;2023-12-04T00:46:02;16.93;;;10.37;;
9722;SDS011;4900;49.306;8.500;2023-12-04T00:48:28;16.13;;;10.20;;
9722;SDS011;4900;49.306;8.500;2023-12-04T00:50:54;17.97;;;10.67;;
9722;SDS011;4900;49.306;8.500;2023-12-04T00:53:20;17.83;;;10.73;;
9722;SDS011;4900;49.306;8.500;2023-12-04T00:55:45;15.67;;;10.07;;
9722;SDS011;4900;49.306;8.500;2023-12-04T00:58:10;17.70;;;10.60;;
9722;SDS011;4900;49.306;8.500;2023-12-04T01:00:36;19.50;;;10.73;;
9722;SDS011;4900;49.306;8.500;2023-12-04T01:03:02;20.80;;;11.63;;
9722;SDS011;4900;49.306;8.500;2023-12-04T01:05:27;17.70;;;10.07;;
9722;SDS011;4900;49.306;8.500;2023-12-04T01:07:52;18.73;;;10.83;;
9722;SDS011;4900;49.306;8.500;2023-12-04T01:10:18;17.90;;;10.67;;
9722;SDS011;4900;49.306;8.500;2023-12-04T01:12:43;19.73;;;10.10;;
9722;SDS011;4900;49.306;8.500;2023-12-04T01:15:09;18.30;;;9.80;;
9722;SDS011;4900;49.306;8.500;2023-12-04T01:17:35;16.57;;;10.10;;
9722;SDS011;4900;49.306;8.500;2023-12-04T01:20:00;18.97;;;10.60;;
9722;SDS011;4900;49.306;8.500;2023-12-04T01:22:26;16.93;;;10.40;;
9722;SDS011;4900;49.306;8.500;2023-12-04T01:24:51;17.63;;;10.27;;
9722;SDS011;4900;49.306;8.500;2023-12-04T01:27:17;14.60;;;9.30;;
9722;SDS011;4900;49.306;8.500;2023-12-04T01:29:43;17.27;;;10.07;;
9722;SDS011;4900;49.306;8.500;2023-12-04T01:32:09;17.40;;;10.23;;
9722;SDS011;4900;49.306;8.500;2023-12-04T01:34:34;19.77;;;10.60;;
9722;SDS011;4900;49.306;8.500;2023-12-04T01:36:59;18.87;;;10.20;;
9722;SDS011;4900;49.306;8.500;2023-12-04T01:39:25;17.93;;;10.17;;
9722;SDS011;4900;49.306;8.500;2023-12-04T01:41:50;20.17;;;11.33;;
9722;SDS011;4900;49.306;8.500;2023-12-04T01:44:16;16.80;;;10.17;;
9722;SDS011;4900;49.306;8.500;2023-12-04T01:46:42;14.90;;;9.30;;
9722;SDS011;4900;49.306;8.500;2023-12-04T01:49:08;18.77;;;10.97;;
9722;SDS011;4900;49.306;8.500;2023-12-04T01:51:34;18.70;;;10.03;;
9722;SDS011;4900;49.306;8.500;2023-12-04T01:54:00;18.80;;;10.20;;
9722;SDS011;4900;49.306;8.500;2023-12-04T01:56:30;16.80;;;10.63;;
9722;SDS011;4900;49.306;8.500;2023-12-04T01:58:55;19.23;;;10.57;;
9722;SDS011;4900;49.306;8.500;2023-12-04T02:01:21;18.47;;;10.47;;
9722;SDS011;4900;49.306;8.500;2023-12-04T02:03:48;15.50;;;9.80;;
9722;SDS011;4900;49.306;8.500;2023-12-04T02:06:14;19.97;;;11.57;;
9722;SDS011;4900;49.306;8.500;2023-12-04T02:08:41;16.93;;;9.83;;
9722;SDS011;4900;49.306;8.500;2023-12-04T02:11:08;18.83;;;10.47;;
9722;SDS011;4900;49.306;8.500;2023-12-04T02:13:33;17.07;;;10.20;;
9722;SDS011;4900;49.306;8.500;2023-12-04T02:16:00;14.73;;;9.43;;
9722;SDS011;4900;49.306;8.500;2023-12-04T02:18:32;16.33;;;10.10;;
9722;SDS011;4900;49.306;8.500;2023-12-04T02:21:00;17.60;;;10.03;;
9722;SDS011;4900;49.306;8.500;2023-12-04T02:23:26;16.40;;;10.17;;
9722;SDS011;4900;49.306;8.500;2023-12-04T02:25:51;17.63;;;9.93;;
9722;SDS011;4900;49.306;8.500;2023-12-04T02:28:23;16.73;;;9.97;;
9722;SDS011;4900;49.306;8.500;2023-12-04T02:30:52;17.57;;;10.60;;
9722;SDS011;4900;49.306;8.500;2023-12-04T02:33:18;20.47;;;11.87;;
9722;SDS011;4900;49.306;8.500;2023-12-04T02:35:48;16.93;;;10.23;;
9722;SDS011;4900;49.306;8.500;2023-12-04T02:38:16;18.00;;;9.77;;
9722;SDS011;4900;49.306;8.500;2023-12-04T02:40:43;18.53;;;10.53;;
9722;SDS011;4900;49.306;8.500;2023-12-04T02:43:09;19.03;;;10.77;;
9722;SDS011;4900;49.306;8.500;2023-12-04T02:45:34;17.07;;;9.73;;
9722;SDS011;4900;49.306;8.500;2023-12-04T02:47:59;19.70;;;10.60;;
9722;SDS011;4900;49.306;8.500;2023-12-04T02:50:25;15.57;;;10.10;;
9722;SDS011;4900;49.306;8.500;2023-12-04T02:52:50;18.30;;;10.80;;
9722;SDS011;4900;49.306;8.500;2023-12-04T02:55:16;18.80;;;10.37;;
9722;SDS011;4900;49.306;8.500;2023-12-04T02:57:41;18.37;;;10.13;;
9722;SDS011;4900;49.306;8.500;2023-12-04T03:00:07;20.93;;;10.80;;
9722;SDS011;4900;49.306;8.500;2023-12-04T03:02:33;18.90;;;10.80;;
9722;SDS011;4900;49.306;8.500;2023-12-04T03:04:58;19.10;;;11.00;;
9722;SDS011;4900;49.306;8.500;2023-12-04T03:07:23;18.20;;;10.70;;
9722;SDS011;4900;49.306;8.500;2023-12-04T03:09:49;16.93;;;9.77;;
9722;SDS011;4900;49.306;8.500;2023-12-04T03:12:16;18.53;;;10.53;;
9722;SDS011;4900;49.306;8.500;2023-12-04T03:14:42;13.63;;;9.13;;
9722;SDS011;4900;49.306;8.500;2023-12-04T03:17:07;19.20;;;10.50;;
9722;SDS011;4900;49.306;8.500;2023-12-04T03:19:32;19.00;;;10.33;;
9722;SDS011;4900;49.306;8.500;2023-12-04T03:21:58;17.80;;;10.20;;
9722;SDS011;4900;49.306;8.500;2023-12-04T03:24:24;21.87;;;10.97;;
9722;SDS011;4900;49.306;8.500;2023-12-04T03:26:50;17.80;;;10.07;;
9722;SDS011;4900;49.306;8.500;2023-12-04T03:29:15;17.00;;;9.83;;
9722;SDS011;4900;49.306;8.500;2023-12-04T03:31:41;17.73;;;10.10;;
9722;SDS011;4900;49.306;8.500;2023-12-04T03:34:06;18.40;;;10.63;;
9722;SDS011;4900;49.306;8.500;2023-12-04T03:36:32;17.23;;;10.70;;
9722;SDS011;4900;49.306;8.500;2023-12-04T03:38:57;16.00;;;9.80;;
9722;SDS011;4900;49.306;8.500;2023-12-04T03:41:22;16.80;;;9.60;;
9722;SDS011;4900;49.306;8.500;2023-12-04T03:43:48;17.40;;;10.07;;
9722;SDS011;4900;49.306;8.500;2023-12-04T03:46:13;18.23;;;10.47;;
9722;SDS011;4900;49.306;8.500;2023-12-04T03:48:39;17.40;;;10.30;;
9722;SDS011;4900;49.306;8.500;2023-12-04T03:51:04;17.07;;;9.77;;
9722;SDS011;4900;49.306;8.500;2023-12-04T03:53:30;18.83;;;10.23;;
9722;SDS011;4900;49.306;8.500;2023-12-04T03:55:58;16.70;;;9.93;;
9722;SDS011;4900;49.306;8.500;2023-12-04T03:58:23;17.77;;;10.47;;
9722;SDS011;4900;49.306;8.500;2023-12-04T04:00:49;17.87;;;10.27;;
9722;SDS011;4900;49.306;8.500;2023-12-04T04:03:14;18.60;;;10.57;;
9722;SDS011;4900;49.306;8.500;2023-12-04T04:05:40;16.47;;;9.90;;
9722;SDS011;4900;49.306;8.500;2023-12-04T04:08:05;16.20;;;10.03;;
9722;SDS011;4900;49.306;8.500;2023-12-04T04:10:32;17.83;;;10.83;;
9722;SDS011;4900;49.306;8.500;2023-12-04T04:12:58;17.10;;;10.40;;
9722;SDS011;4900;49.306;8.500;2023-12-04T04:15:23;16.00;;;9.57;;
9722;SDS011;4900;49.306;8.500;2023-12-04T04:17:49;17.80;;;10.73;;
9722;SDS011;4900;49.306;8.500;2023-12-04T04:20:14;19.27;;;10.60;;
9722;SDS011;4900;49.306;8.500;2023-12-04T04:22:40;17.57;;;10.33;;
9722;SDS011;4900;49.306;8.500;2023-12-04T04:25:06;15.30;;;9.13;;
9722;SDS011;4900;49.306;8.500;2023-12-04T04:27:32;17.10;;;8.97;;
9722;SDS011;4900;49.306;8.500;2023-12-04T04:29:58;17.40;;;10.07;;
9722;SDS011;4900;49.306;8.500;2023-12-04T04:32:23;16.33;;;9.17;;
9722;SDS011;4900;49.306;8.500;2023-12-04T04:34:49;16.73;;;9.63;;
9722;SDS011;4900;49.306;8.500;2023-12-04T04:37:14;15.30;;;9.57;;
9722;SDS011;4900;49.306;8.500;2023-12-04T04:39:40;15.47;;;8.97;;
9722;SDS011;4900;49.306;8.500;2023-12-04T04:42:06;16.73;;;9.47;;
9722;SDS011;4900;49.306;8.500;2023-12-04T04:44:31;14.70;;;9.20;;
9722;SDS011;4900;49.306;8.500;2023-12-04T04:46:56;14.67;;;8.90;;
9722;SDS011;4900;49.306;8.500;2023-12-04T04:49:22;14.17;;;8.93;;
9722;SDS011;4900;49.306;8.500;2023-12-04T04:51:47;14.33;;;8.60;;
9722;SDS011;4900;49.306;8.500;2023-12-04T04:54:13;14.53;;;8.47;;
9722;SDS011;4900;49.306;8.500;2023-12-04T04:56:38;15.93;;;9.03;;
9722;SDS011;4900;49.306;8.500;2023-12-04T04:59:04;15.27;;;9.47;;
9722;SDS011;4900;49.306;8.500;2023-12-04T05:01:29;15.20;;;9.37;;
9722;SDS011;4900;49.306;8.500;2023-12-04T05:03:55;15.63;;;9.03;;
9722;SDS011;4900;49.306;8.500;2023-12-04T05:06:21;14.90;;;8.80;;
9722;SDS011;4900;49.306;8.500;2023-12-04T05:08:47;14.30;;;8.63;;
9722;SDS011;4900;49.306;8.500;2023-12-04T05:11:15;14.90;;;9.23;;
9722;SDS011;4900;49.306;8.500;2023-12-04T05:13:41;14.23;;;8.37;;
9722;SDS011;4900;49.306;8.500;2023-12-04T05:16:06;15.90;;;8.97;;
9722;SDS011;4900;49.306;8.500;2023-12-04T05:18:32;15.40;;;9.10;;
9722;SDS011;4900;49.306;8.500;2023-12-04T05:20:57;13.90;;;8.87;;
9722;SDS011;4900;49.306;8.500;2023-12-04T05:23:23;14.37;;;8.63;;
9722;SDS011;4900;49.306;8.500;2023-12-04T05:25:48;15.90;;;9.73;;
9722;SDS011;4900;49.306;8.500;2023-12-04T05:28:14;16.47;;;9.77;;
9722;SDS011;4900;49.306;8.500;2023-12-04T05:30:39;18.07;;;9.80;;
9722;SDS011;4900;49.306;8.500;2023-12-04T05:33:04;17.17;;;10.07;;
9722;SDS011;4900;49.306;8.500;2023-12-04T05:35:30;14.13;;;8.77;;
9722;SDS011;4900;49.306;8.500;2023-12-04T05:37:59;15.00;;;9.17;;
9722;SDS011;4900;49.306;8.500;2023-12-04T05:40:24;16.90;;;9.93;;
9722;SDS011;4900;49.306;8.500;2023-12-04T05:42:50;15.10;;;8.87;;
9722;SDS011;4900;49.306;8.500;2023-12-04T05:45:15;17.47;;;8.97;;
9722;SDS011;4900;49.306;8.500;2023-12-04T05:47:40;16.00;;;9.17;;
9722;SDS011;4900;49.306;8.500;2023-12-04T05:50:06;15.80;;;8.93;;
9722;SDS011;4900;49.306;8.500;2023-12-04T05:52:32;14.70;;;8.90;;
9722;SDS011;4900;49.306;8.500;2023-12-04T05:54:57;16.17;;;9.47;;
9722;SDS011;4900;49.306;8.500;2023-12-04T05:57:23;15.37;;;8.90;;
9722;SDS011;4900;49.306;8.500;2023-12-04T05:59:48;15.87;;;9.43;;
9722;SDS011;4900;49.306;8.500;2023-12-04T06:02:14;15.17;;;8.97;;
9722;SDS011;4900;49.306;8.500;2023-12-04T06:04:40;14.30;;;8.80;;
9722;SDS011;4900;49.306;8.500;2023-12-04T06:07:06;14.43;;;8.73;;
9722;SDS011;4900;49.306;8.500;2023-12-04T06:09:32;13.93;;;8.50;;
9722;SDS011;4900;49.306;8.500;2023-12-04T06:11:58;14.43;;;8.53;;
9722;SDS011;4900;49.306;8.500;2023-12-04T06:14:34;14.30;;;8.70;;
9722;SDS011;4900;49.306;8.500;2023-12-04T06:17:00;13.60;;;8.80;;
9722;SDS011;4900;49.306;8.500;2023-12-04T06:19:27;13.13;;;8.17;;
9722;SDS011;4900;49.306;8.500;2023-12-04T06:21:53;13.97;;;8.17;;
9722;SDS011;4900;49.306;8.500;2023-12-04T06:24:20;13.73;;;8.87;;
9722;SDS011;4900;49.306;8.500;2023-12-04T06:26:46;14.07;;;8.53;;
9722;SDS011;4900;49.306;8.500;2023-12-04T06:29:15;14.50;;;8.43;;
9722;SDS011;4900;49.306;8.500;2023-12-04T06:31:41;13.47;;;8.67;;
9722;SDS011;4900;49.306;8.500;2023-12-04T06:34:07;13.40;;;8.47;;
9722;SDS011;4900;49.306;8.500;2023-12-04T06:36:35;14.73;;;8.67;;
9722;SDS011;4900;49.306;8.500;2023-12-04T06:39:04;12.43;;;8.30;;
9722;SDS011;4900;49.306;8.500;2023-12-04T06:41:34;14.17;;;8.43;;
9722;SDS011;4900;49.306;8.500;2023-12-04T06:44:00;14.93;;;8.50;;
9722;SDS011;4900;49.306;8.500;2023-12-04T06:46:26;14.37;;;8.13;;
9722;SDS011;4900;49.306;8.500;2023-12-04T06:48:54;14.23;;;8.63;;
9722;SDS011;4900;49.306;8.500;2023-12-04T06:51:23;13.57;;;7.67;;
9722;SDS011;4900;49.306;8.500;2023-12-04T06:53:49;16.37;;;9.00;;
9722;SDS011;4900;49.306;8.500;2023-12-04T06:56:14;15.90;;;8.67;;
9722;SDS011;4900;49.306;8.500;2023-12-04T06:58:52;14.67;;;8.53;;
9722;SDS011;4900;49.306;8.500;2023-12-04T07:01:19;16.03;;;9.63;;
9722;SDS011;4900;49.306;8.500;2023-12-04T07:03:44;15.30;;;9.50;;
9722;SDS011;4900;49.306;8.500;2023-12-04T07:06:10;19.77;;;10.20;;
9722;SDS011;4900;49.306;8.500;2023-12-04T07:08:35;16.80;;;9.47;;
9722;SDS011;4900;49.306;8.500;2023-12-04T07:11:01;16.77;;;10.07;;
9722;SDS011;4900;49.306;8.500;2023-12-04T07:13:27;14.97;;;8.23;;
9722;SDS011;4900;49.306;8.500;2023-12-04T07:15:53;17.40;;;9.57;;
9722;SDS011;4900;49.306;8.500;2023-12-04T07:18:18;16.20;;;9.90;;
9722;SDS011;4900;49.306;8.500;2023-12-04T07:20:43;15.60;;;9.40;;
9722;SDS011;4900;49.306;8.500;2023-12-04T07:23:09;16.27;;;9.53;;
9722;SDS011;4900;49.306;8.500;2023-12-04T07:25:34;16.23;;;9.70;;
9722;SDS011;4900;49.306;8.500;2023-12-04T07:28:00;15.33;;;9.23;;
9722;SDS011;4900;49.306;8.500;2023-12-04T07:30:25;12.73;;;8.27;;
9722;SDS011;4900;49.306;8.500;2023-12-04T07:32:51;13.33;;;8.23;;
9722;SDS011;4900;49.306;8.500;2023-12-04T07:35:18;14.50;;;9.03;;
9722;SDS011;4900;49.306;8.500;2023-12-04T07:37:44;13.97;;;8.47;;
9722;SDS011;4900;49.306;8.500;2023-12-04T07:40:09;13.77;;;8.67;;
9722;SDS011;4900;49.306;8.500;2023-12-04T07:42:35;12.83;;;7.57;;
9722;SDS011;4900;49.306;8.500;2023-12-04T07:45:01;13.07;;;8.30;;
9722;SDS011;4900;49.306;8.500;2023-12-04T07:47:27;14.13;;;8.37;;
9722;SDS011;4900;49.306;8.500;2023-12-04T07:49:53;14.87;;;8.77;;
9722;SDS011;4900;49.306;8.500;2023-12-04T07:52:18;14.30;;;9.40;;
9722;SDS011;4900;49.306;8.500;2023-12-04T07:54:44;15.43;;;9.00;;
9722;SDS011;4900;49.306;8.500;2023-12-04T07:57:09;13.37;;;7.67;;
9722;SDS011;4900;49.306;8.500;2023-12-04T07:59:35;18.97;;;9.77;;
9722;SDS011;4900;49.306;8.500;2023-12-04T08:02:00;14.13;;;8.47;;
9722;SDS011;4900;49.306;8.500;2023-12-04T08:04:27;14.03;;;8.80;;
9722;SDS011;4900;49.306;8.500;2023-12-04T08:06:52;12.23;;;7.57;;
9722;SDS011;4900;49.306;8.500;2023-12-04T08:09:18;12.50;;;8.50;;
9722;SDS011;4900;49.306;8.500;2023-12-04T08:11:43;12.93;;;7.83;;
9722;SDS011;4900;49.306;8.500;2023-12-04T08:14:08;11.90;;;7.27;;
9722;SDS011;4900;49.306;8.500;2023-12-04T08:16:34;13.70;;;8.47;;
9722;SDS011;4900;49.306;8.500;2023-12-04T08:18:59;13.17;;;8.00;;
9722;SDS011;4900;49.306;8.500;2023-12-04T08:21:25;12.13;;;7.10;;
9722;SDS011;4900;49.306;8.500;2023-12-04T08:23:50;13.60;;;8.33;;
9722;SDS011;4900;49.306;8.500;2023-12-04T08:26:22;12.57;;;7.97;;
9722;SDS011;4900;49.306;8.500;2023-12-04T08:28:49;13.50;;;8.67;;
9722;SDS011;4900;49.306;8.500;2023-12-04T08:31:17;10.57;;;6.93;;
9722;SDS011;4900;49.306;8.500;2023-12-04T08:33:43;10.73;;;7.20;;
9722;SDS011;4900;49.306;8.500;2023-12-04T08:36:15;12.03;;;8.30;;
9722;SDS011;4900;49.306;8.500;2023-12-04T08:38:40;12.97;;;8.07;;
9722;SDS011;4900;49.306;8.500;2023-12-04T08:41:06;12.30;;;8.03;;
9722;SDS011;4900;49.306;8.500;2023-12-04T08:43:32;15.00;;;8.90;;
9722;SDS011;4900;49.306;8.500;2023-12-04T08:45:57;12.63;;;8.83;;
9722;SDS011;4900;49.306;8.500;2023-12-04T08:48:23;13.23;;;7.67;;
9722;SDS011;4900;49.306;8.500;2023-12-04T08:50:49;11.73;;;7.53;;
9722;SDS011;4900;49.306;8.500;2023-12-04T08:53:14;12.63;;;7.60;;
9722;SDS011;4900;49.306;8.500;2023-12-04T08:55:40;11.63;;;7.43;;
9722;SDS011;4900;49.306;8.500;2023-12-04T08:58:05;11.93;;;7.93;;
9722;SDS011;4900;49.306;8.500;2023-12-04T09:00:31;14.47;;;8.03;;
9722;SDS011;4900;49.306;8.500;2023-12-04T09:02:58;13.37;;;8.47;;
9722;SDS011;4900;49.306;8.500;2023-12-04T09:05:23;11.97;;;7.73;;
9722;SDS011;4900;49.306;8.500;2023-12-04T09:07:49;11.63;;;8.03;;
9722;SDS011;4900;49.306;8.500;2023-12-04T09:10:14;13.77;;;8.90;;
9722;SDS011;4900;49.306;8.500;2023-12-04T09:12:40;11.40;;;7.97;;
9722;SDS011;4900;49.306;8.500;2023-12-04T09:15:06;12.63;;;8.43;;
9722;SDS011;4900;49.306;8.500;2023-12-04T09:17:31;12.87;;;8.40;;
9722;SDS011;4900;49.306;8.500;2023-12-04T09:19:57;13.57;;;8.87;;
9722;SDS011;4900;49.306;8.500;2023-12-04T09:22:22;12.23;;;7.40;;
9722;SDS011;4900;49.306;8.500;2023-12-04T09:24:48;12.67;;;8.37;;
9722;SDS011;4900;49.306;8.500;2023-12-04T09:27:16;13.00;;;8.10;;
9722;SDS011;4900;49.306;8.500;2023-12-04T09:29:42;12.63;;;8.47;;
9722;SDS011;4900;49.306;8.500;2023-12-04T09:32:07;10.93;;;7.10;;
9722;SDS011;4900;49.306;8.500;2023-12-04T09:34:33;11.43;;;7.97;;
9722;SDS011;4900;49.306;8.500;2023-12-04T09:36:59;13.23;;;7.77;;
9722;SDS011;4900;49.306;8.500;2023-12-04T09:39:24;11.87;;;7.47;;
9722;SDS011;4900;49.306;8.500;2023-12-04T09:41:50;12.53;;;7.77;;
9722;SDS011;4900;49.306;8.500;2023-12-04T09:44:15;13.87;;;8.00;;
9722;SDS011;4900;49.306;8.500;2023-12-04T09:46:41;12.63;;;8.47;;
9722;SDS011;4900;49.306;8.500;2023-12-04T09:49:09;13.43;;;8.27;;
9722;SDS011;4900;49.306;8.500;2023-12-04T09:51:35;13.23;;;8.40;;
9722;SDS011;4900;49.306;8.500;2023-12-04T09:54:03;10.93;;;7.70;;
9722;SDS011;4900;49.306;8.500;2023-12-04T09:56:29;11.33;;;7.23;;
9722;SDS011;4900;49.306;8.500;2023-12-04T09:58:58;12.53;;;7.73;;
9722;SDS011;4900;49.306;8.500;2023-12-04T10:01:30;11.43;;;7.27;;
9722;SDS011;4900;49.306;8.500;2023-12-04T10:04:00;11.40;;;7.47;;
9722;SDS011;4900;49.306;8.500;2023-12-04T10:06:27;13.87;;;8.40;;
9722;SDS011;4900;49.306;8.500;2023-12-04T10:08:54;15.87;;;8.50;;
9722;SDS011;4900;49.306;8.500;2023-12-04T10:11:22;11.33;;;7.83;;
9722;SDS011;4900;49.306;8.500;2023-12-04T10:13:48;11.60;;;7.57;;
9722;SDS011;4900;49.306;8.500;2023-12-04T10:16:13;11.57;;;7.57;;
9722;SDS011;4900;49.306;8.500;2023-12-04T10:18:39;11.43;;;7.60;;
9722;SDS011;4900;49.306;8.500;2023-12-04T10:21:04;11.13;;;7.83;;
9722;SDS011;4900;49.306;8.500;2023-12-04T10:23:36;10.20;;;6.97;;
9722;SDS011;4900;49.306;8.500;2023-12-04T10:26:03;12.20;;;7.40;;
9722;SDS011;4900;49.306;8.500;2023-12-04T10:28:29;10.87;;;7.60;;
9722;SDS011;4900;49.306;8.500;2023-12-04T10:30:55;10.03;;;6.70;;
9722;SDS011;4900;49.306;8.500;2023-12-04T10:33:20;11.13;;;6.53;;
9722;SDS011;4900;49.306;8.500;2023-12-04T10:35:46;10.60;;;7.23;;
9722;SDS011;4900;49.306;8.500;2023-12-04T10:38:12;11.63;;;7.67;;
9722;SDS011;4900;49.306;8.500;2023-12-04T10:40:40;10.97;;;7.20;;
9722;SDS011;4900;49.306;8.500;2023-12-04T10:45:34;11.53;;;7.50;;
9722;SDS011;4900;49.306;8.500;2023-12-04T10:48:01;12.13;;;7.67;;
9722;SDS011;4900;49.306;8.500;2023-12-04T10:50:30;11.40;;;7.93;;
9722;SDS011;4900;49.306;8.500;2023-12-04T10:53:01;12.03;;;8.27;;
9722;SDS011;4900;49.306;8.500;2023-12-04T10:55:29;10.07;;;7.10;;
9722;SDS011;4900;49.306;8.500;2023-12-04T10:57:55;12.20;;;8.00;;
9722;SDS011;4900;49.306;8.500;2023-12-04T11:00:22;12.07;;;7.80;;
9722;SDS011;4900;49.306;8.500;2023-12-04T11:02:48;11.87;;;7.87;;
9722;SDS011;4900;49.306;8.500;2023-12-04T11:05:16;11.23;;;7.87;;
9722;SDS011;4900;49.306;8.500;2023-12-04T11:07:56;11.33;;;7.23;;
9722;SDS011;4900;49.306;8.500;2023-12-04T11:10:25;12.57;;;7.67;;
9722;SDS011;4900;49.306;8.500;2023-12-04T11:13:12;10.77;;;7.87;;
9722;SDS011;4900;49.306;8.500;2023-12-04T11:15:47;11.47;;;7.37;;
9722;SDS011;4900;49.306;8.500;2023-12-04T11:18:15;11.83;;;7.73;;
9722;SDS011;4900;49.306;8.500;2023-12-04T11:20:51;10.93;;;7.43;;
9722;SDS011;4900;49.306;8.500;2023-12-04T11:23:23;11.93;;;8.23;;
9722;SDS011;4900;49.306;8.500;2023-12-04T11:25:50;12.50;;;8.00;;
9722;SDS011;4900;49.306;8.500;2023-12-04T11:28:19;12.40;;;8.23;;
9722;SDS011;4900;49.306;8.500;2023-12-04T11:30:46;14.10;;;7.97;;
9722;SDS011;4900;49.306;8.500;2023-12-04T11:33:12;13.17;;;8.80;;
9722;SDS011;4900;49.306;8.500;2023-12-04T11:35:38;12.53;;;8.10;;
9722;SDS011;4900;49.306;8.500;2023-12-04T11:38:07;12.83;;;8.10;;
9722;SDS011;4900;49.306;8.500;2023-12-04T11:40:34;13.63;;;8.57;;
9722;SDS011;4900;49.306;8.500;2023-12-04T11:43:04;14.10;;;8.90;;
9722;SDS011;4900;49.306;8.500;2023-12-04T11:45:47;13.33;;;8.03;;
9722;SDS011;4900;49.306;8.500;2023-12-04T11:48:13;12.80;;;8.60;;
9722;SDS011;4900;49.306;8.500;2023-12-04T11:50:39;12.97;;;8.40;;
9722;SDS011;4900;49.306;8.500;2023-12-04T11:53:05;11.80;;;8.03;;
9722;SDS011;4900;49.306;8.500;2023-12-04T11:55:31;11.73;;;8.13;;
9722;SDS011;4900;49.306;8.500;2023-12-04T11:58:00;13.10;;;8.43;;
9722;SDS011;4900;49.306;8.500;2023-12-04T12:00:34;11.53;;;8.20;;
9722;SDS011;4900;49.306;8.500;2023-12-04T12:03:01;13.17;;;8.33;;
9722;SDS011;4900;49.306;8.500;2023-12-04T12:05:29;13.13;;;8.37;;
9722;SDS011;4900;49.306;8.500;2023-12-04T12:07:59;12.40;;;8.47;;
9722;SDS011;4900;49.306;8.500;2023-12-04T12:10:26;11.53;;;8.20;;
9722;SDS011;4900;49.306;8.500;2023-12-04T12:12:52;14.70;;;9.03;;
9722;SDS011;4900;49.306;8.500;2023-12-04T12:15:18;13.17;;;8.90;;
9722;SDS011;4900;49.306;8.500;2023-12-04T12:17:44;12.43;;;8.57;;
9722;SDS011;4900;49.306;8.500;2023-12-04T12:20:10;13.80;;;8.77;;
9722;SDS011;4900;49.306;8.500;2023-12-04T12:22:37;11.80;;;7.83;;
9722;SDS011;4900;49.306;8.500;2023-12-04T12:25:12;13.67;;;8.90;;
9722;SDS011;4900;49.306;8.500;2023-12-04T12:27:39;13.17;;;8.43;;
9722;SDS011;4900;49.306;8.500;2023-12-04T12:30:05;14.43;;;8.93;;
9722;SDS011;4900;49.306;8.500;2023-12-04T12:32:31;15.00;;;8.90;;
9722;SDS011;4900;49.306;8.500;2023-12-04T12:34:57;14.07;;;8.97;;
9722;SDS011;4900;49.306;8.500;2023-12-04T12:37:23;13.90;;;9.13;;
9722;SDS011;4900;49.306;8.500;2023-12-04T12:39:48;12.73;;;9.03;;
9722;SDS011;4900;49.306;8.500;2023-12-04T12:42:23;13.00;;;8.80;;
9722;SDS011;4900;49.306;8.500;2023-12-04T12:44:49;12.87;;;8.50;;
9722;SDS011;4900;49.306;8.500;2023-12-04T12:47:15;12.73;;;8.43;;
9722;SDS011;4900;49.306;8.500;2023-12-04T12:49:41;13.60;;;7.37;;
9722;SDS011;4900;49.306;8.500;2023-12-04T12:52:06;12.83;;;9.17;;
9722;SDS011;4900;49.306;8.500;2023-12-04T12:54:38;12.87;;;8.27;;
9722;SDS011;4900;49.306;8.500;2023-12-04T12:57:05;13.17;;;9.03;;
9722;SDS011;4900;49.306;8.500;2023-12-04T12:59:33;12.80;;;8.40;;
9722;SDS011;4900;49.306;8.500;2023-12-04T13:02:00;12.90;;;9.03;;
9722;SDS011;4900;49.306;8.500;2023-12-04T13:04:37;14.73;;;9.40;;
9722;SDS011;4900;49.306;8.500;2023-12-04T13:07:05;14.23;;;9.37;;
9722;SDS011;4900;49.306;8.500;2023-12-04T13:09:32;12.97;;;9.07;;
9722;SDS011;4900;49.306;8.500;2023-12-04T13:11:59;14.33;;;9.13;;
9722;SDS011;4900;49.306;8.500;2023-12-04T13:14:27;19.67;;;12.23;;
9722;SDS011;4900;49.306;8.500;2023-12-04T13:16:53;16.90;;;10.30;;
9722;SDS011;4900;49.306;8.500;2023-12-04T13:19:20;19.03;;;11.20;;
9722;SDS011;4900;49.306;8.500;2023-12-04T13:21:46;14.77;;;10.17;;
9722;SDS011;4900;49.306;8.500;2023-12-04T13:24:11;18.10;;;10.40;;
9722;SDS011;4900;49.306;8.500;2023-12-04T13:26:37;16.27;;;9.83;;
9722;SDS011;4900;49.306;8.500;2023-12-04T13:29:03;15.00;;;10.03;;
9722;SDS011;4900;49.306;8.500;2023-12-04T13:31:29;15.80;;;10.43;;
9722;SDS011;4900;49.306;8.500;2023-12-04T13:33:54;18.10;;;9.70;;
9722;SDS011;4900;49.306;8.500;2023-12-04T13:36:20;17.93;;;11.03;;
9722;SDS011;4900;49.306;8.500;2023-12-04T13:38:45;16.50;;;10.20;;
9722;SDS011;4900;49.306;8.500;2023-12-04T13:41:11;16.00;;;9.77;;
9722;SDS011;4900;49.306;8.500;2023-12-04T13:43:55;15.77;;;9.47;;
9722;SDS011;4900;49.306;8.500;2023-12-04T13:46:20;15.67;;;9.53;;
9722;SDS011;4900;49.306;8.500;2023-12-04T13:48:46;15.13;;;9.50;;
9722;SDS011;4900;49.306;8.500;2023-12-04T13:51:12;15.47;;;8.93;;
9722;SDS011;4900;49.306;8.500;2023-12-04T13:53:38;15.43;;;9.50;;
9722;SDS011;4900;49.306;8.500;2023-12-04T13:56:07;13.27;;;9.43;;
9722;SDS011;4900;49.306;8.500;2023-12-04T13:58:39;15.97;;;10.33;;
9722;SDS011;4900;49.306;8.500;2023-12-04T14:01:09;14.20;;;9.80;;
9722;SDS011;4900;49.306;8.500;2023-12-04T14:03:42;12.93;;;9.33;;
9722;SDS011;4900;49.306;8.500;2023-12-04T14:06:09;14.97;;;9.70;;
9722;SDS011;4900;49.306;8.500;2023-12-04T14:08:34;16.23;;;10.50;;
9722;SDS011;4900;49.306;8.500;2023-12-04T14:11:02;15.60;;;10.30;;
9722;SDS011;4900;49.306;8.500;2023-12-04T14:13:28;16.10;;;10.63;;
9722;SDS011;4900;49.306;8.500;2023-12-04T14:15:54;16.70;;;10.77;;
9722;SDS011;4900;49.306;8.500;2023-12-04T14:18:19;16.27;;;10.13;;
9722;SDS011;4900;49.306;8.500;2023-12-04T14:20:45;16.03;;;10.10;;
9722;SDS011;4900;49.306;8.500;2023-12-04T14:23:11;14.43;;;9.33;;
9722;SDS011;4900;49.306;8.500;2023-12-04T14:25:36;16.30;;;10.50;;
9722;SDS011;4900;49.306;8.500;2023-12-04T14:28:02;16.70;;;10.77;;
9722;SDS011;4900;49.306;8.500;2023-12-04T14:30:30;15.40;;;10.17;;
9722;SDS011;4900;49.306;8.500;2023-12-04T14:32:55;14.53;;;9.67;;
9722;SDS011;4900;49.306;8.500;2023-12-04T14:35:21;16.83;;;10.80;;
9722;SDS011;4900;49.306;8.500;2023-12-04T14:37:46;14.43;;;10.40;;
9722;SDS011;4900;49.306;8.500;2023-12-04T14:40:12;16.87;;;10.80;;
9722;SDS011;4900;49.306;8.500;2023-12-04T14:42:41;14.57;;;9.60;;
9722;SDS011;4900;49.306;8.500;2023-12-04T14:45:08;17.00;;;10.07;;
9722;SDS011;4900;49.306;8.500;2023-12-04T14:47:34;14.93;;;9.37;;
9722;SDS011;4900;49.306;8.500;2023-12-04T14:50:02;14.83;;;10.13;;
9722;SDS011;4900;49.306;8.500;2023-12-04T14:52:28;14.53;;;9.17;;
9722;SDS011;4900;49.306;8.500;2023-12-04T14:54:54;14.60;;;9.97;;
9722;SDS011;4900;49.306;8.500;2023-12-04T14:57:35;14.23;;;9.20;;